Time,TemperatureF,DewpointF,PressureIn,WindDirection,WindDirectionDegrees,WindSpeedMPH,WindSpeedGustMPH,Humidity,HourlyPrecipIn,Conditions,Clouds,dailyrainin,SoftwareType,DateUTC
2013-09-27 00:11:00,54.9,52.0,29.76,East,90,0.0,-999.0,90,-99.99,,,0.00,Acu-Link.com,2013-09-27 04:11:00,
2013-09-27 00:26:00,54.9,52.0,29.76,SSE,157,0.0,-999.0,90,-99.99,,,0.00,Acu-Link.com,2013-09-27 04:26:00,
2013-09-27 00:41:00,54.7,51.8,29.76,ENE,67,0.0,-999.0,90,-99.99,,,0.00,Acu-Link.com,2013-09-27 04:41:00,
2013-09-27 00:57:00,54.1,51.2,29.76,WNW,292,0.0,-999.0,90,-99.99,,,0.00,Acu-Link.com,2013-09-27 04:57:00,
2013-09-27 01:12:00,54.3,51.4,29.76,NE,45,0.0,-999.0,90,-99.99,,,0.00,Acu-Link.com,2013-09-27 05:12:00,
2013-09-27 01:27:00,54.3,51.4,29.76,East,90,0.0,-999.0,90,-99.99,,,0.00,Acu-Link.com,2013-09-27 05:27:00,
2013-09-27 01:42:00,54.3,51.4,29.76,ESE,112,0.0,-999.0,90,-99.99,,,0.00,Acu-Link.com,2013-09-27 05:42:00,
2013-09-27 01:57:00,54.1,51.2,29.76,East,90,0.0,-999.0,90,-99.99,,,0.00,Acu-Link.com,2013-09-27 05:57:00,
2013-09-27 02:12:00,54.1,51.5,29.77,East,90,0.0,-999.0,91,-99.99,,,0.00,Acu-Link.com,2013-09-27 06:12:00,
2013-09-27 02:28:00,54.0,51.4,29.77,East,90,0.0,-999.0,91,-99.99,,,0.00,Acu-Link.com,2013-09-27 06:28:00,
2013-09-27 02:43:00,54.0,51.4,29.76,ESE,112,0.0,-999.0,91,-99.99,,,0.00,Acu-Link.com,2013-09-27 06:43:00,
2013-09-27 02:58:00,53.8,51.2,29.76,ENE,67,0.0,-999.0,91,-99.99,,,0.00,Acu-Link.com,2013-09-27 06:58:00,
2013-09-27 03:13:00,53.6,51.0,29.76,ESE,112,0.0,-999.0,91,-99.99,,,0.00,Acu-Link.com,2013-09-27 07:13:00,
2013-09-27 03:29:00,53.4,50.8,29.76,East,90,0.0,-999.0,91,-99.99,,,0.00,Acu-Link.com,2013-09-27 07:29:00,
2013-09-27 03:44:00,53.4,50.8,29.76,East,90,0.0,-999.0,91,-99.99,,,0.00,Acu-Link.com,2013-09-27 07:44:00,
2013-09-27 03:59:00,53.4,50.8,29.77,East,90,0.0,-999.0,91,-99.99,,,0.00,Acu-Link.com,2013-09-27 07:59:00,
2013-09-27 04:15:00,53.4,50.8,29.76,East,90,0.0,-999.0,91,-99.99,,,0.00,Acu-Link.com,2013-09-27 08:15:00,
2013-09-27 04:30:00,53.2,50.6,29.77,ESE,112,0.0,-999.0,91,-99.99,,,0.00,Acu-Link.com,2013-09-27 08:30:00,
2013-09-27 04:46:00,53.1,50.5,29.76,ESE,112,0.0,-999.0,91,-99.99,,,0.00,Acu-Link.com,2013-09-27 08:46:00,
2013-09-27 05:01:00,53.1,50.5,29.77,ENE,67,0.0,-999.0,91,-99.99,,,0.00,Acu-Link.com,2013-09-27 09:01:00,
2013-09-27 05:16:00,52.7,50.1,29.77,East,90,0.0,-999.0,91,-99.99,,,0.00,Acu-Link.com,2013-09-27 09:16:00,
2013-09-27 05:32:00,52.7,50.1,29.78,East,90,0.0,-999.0,91,-99.99,,,0.00,Acu-Link.com,2013-09-27 09:32:00,
2013-09-27 05:47:00,52.7,50.1,29.78,ESE,112,0.0,-999.0,91,-99.99,,,0.00,Acu-Link.com,2013-09-27 09:47:00,
2013-09-27 06:02:00,52.7,50.1,29.78,East,90,1.1,-999.0,91,-99.99,,,0.00,Acu-Link.com,2013-09-27 10:02:00,
2013-09-27 06:17:00,52.7,50.1,29.78,East,90,0.0,-999.0,91,-99.99,,,0.00,Acu-Link.com,2013-09-27 10:17:00,
2013-09-27 06:33:00,52.5,49.9,29.78,ENE,67,1.1,-999.0,91,-99.99,,,0.00,Acu-Link.com,2013-09-27 10:33:00,
2013-09-27 06:48:00,51.8,49.3,29.80,NE,45,0.0,-999.0,91,-99.99,,,0.00,Acu-Link.com,2013-09-27 10:48:00,
2013-09-27 07:03:00,51.8,49.3,29.81,SW,225,0.0,-999.0,91,-99.99,,,0.00,Acu-Link.com,2013-09-27 11:03:00,
2013-09-27 07:19:00,51.8,49.3,29.81,East,90,0.0,-999.0,91,-99.99,,,0.00,Acu-Link.com,2013-09-27 11:19:00,
2013-09-27 07:34:00,51.6,49.1,29.82,NE,45,0.0,-999.0,91,-99.99,,,0.00,Acu-Link.com,2013-09-27 11:34:00,
2013-09-27 07:50:00,51.6,49.1,29.82,ESE,112,0.0,-999.0,91,-99.99,,,0.00,Acu-Link.com,2013-09-27 11:50:00,
2013-09-27 08:06:00,51.6,49.4,29.83,NW,315,0.0,-999.0,92,-99.99,,,0.00,Acu-Link.com,2013-09-27 12:06:00,
2013-09-27 08:21:00,52.0,49.7,29.84,ENE,67,0.0,-999.0,92,-99.99,,,0.00,Acu-Link.com,2013-09-27 12:21:00,
2013-09-27 08:36:00,52.3,50.0,29.84,ENE,67,0.0,-999.0,92,-99.99,,,0.00,Acu-Link.com,2013-09-27 12:36:00,
2013-09-27 08:51:00,52.5,50.2,29.85,NNE,22,0.0,-999.0,92,-99.99,,,0.00,Acu-Link.com,2013-09-27 12:51:00,
2013-09-27 09:07:00,53.2,50.9,29.85,ENE,67,0.0,-999.0,92,-99.99,,,0.00,Acu-Link.com,2013-09-27 13:07:00,
2013-09-27 09:22:00,54.9,52.3,29.85,ENE,67,1.1,-999.0,91,-99.99,,,0.00,Acu-Link.com,2013-09-27 13:22:00,
2013-09-27 09:37:00,55.9,53.0,29.85,ESE,112,1.1,-999.0,90,-99.99,,,0.00,Acu-Link.com,2013-09-27 13:37:00,
2013-09-27 09:53:00,57.4,54.2,29.85,NE,45,1.7,-999.0,89,-99.99,,,0.00,Acu-Link.com,2013-09-27 13:53:00,
2013-09-27 10:08:00,58.5,55.0,29.86,ENE,67,2.7,-999.0,88,-99.99,,,0.00,Acu-Link.com,2013-09-27 14:08:00,
2013-09-27 10:23:00,59.2,55.6,29.86,East,90,3.2,-999.0,88,-99.99,,,0.00,Acu-Link.com,2013-09-27 14:23:00,
2013-09-27 10:39:00,60.1,56.5,29.87,ENE,67,0.0,-999.0,88,-99.99,,,0.00,Acu-Link.com,2013-09-27 14:39:00,
2013-09-27 10:54:00,61.3,56.7,29.87,East,90,2.2,-999.0,85,-99.99,,,0.00,Acu-Link.com,2013-09-27 14:54:00,
2013-09-27 11:09:00,62.4,55.8,29.87,ENE,67,1.7,-999.0,79,-99.99,,,0.00,Acu-Link.com,2013-09-27 15:09:00,
2013-09-27 11:24:00,64.2,56.8,29.87,East,90,2.2,-999.0,77,-99.99,,,0.00,Acu-Link.com,2013-09-27 15:24:00,
2013-09-27 11:40:00,63.7,56.0,29.87,East,90,3.2,-999.0,76,-99.99,,,0.00,Acu-Link.com,2013-09-27 15:40:00,
2013-09-27 11:55:00,65.8,58.0,29.87,East,90,0.0,-999.0,76,-99.99,,,0.00,Acu-Link.com,2013-09-27 15:55:00,
2013-09-27 12:10:00,68.4,57.8,29.86,East,90,3.2,-999.0,69,-99.99,,,0.00,Acu-Link.com,2013-09-27 16:10:00,
2013-09-27 12:25:00,66.4,56.7,29.87,East,90,2.2,-999.0,71,-99.99,,,0.00,Acu-Link.com,2013-09-27 16:25:00,
2013-09-27 12:40:00,65.5,58.1,29.86,SW,225,0.0,-999.0,77,-99.99,,,0.00,Acu-Link.com,2013-09-27 16:40:00,
2013-09-27 12:56:00,66.7,57.4,29.86,ESE,112,3.2,-999.0,72,-99.99,,,0.00,Acu-Link.com,2013-09-27 16:56:00,
2013-09-27 13:11:00,67.3,58.0,29.85,WNW,292,0.0,-999.0,72,-99.99,,,0.00,Acu-Link.com,2013-09-27 17:11:00,
2013-09-27 13:26:00,67.8,57.3,29.85,NE,45,1.7,-999.0,69,-99.99,,,0.00,Acu-Link.com,2013-09-27 17:26:00,
2013-09-27 13:41:00,67.6,57.9,29.84,ENE,67,2.2,-999.0,71,-99.99,,,0.00,Acu-Link.com,2013-09-27 17:41:00,
2013-09-27 13:57:00,70.7,59.2,29.84,ENE,67,1.7,-999.0,67,-99.99,,,0.00,Acu-Link.com,2013-09-27 17:57:00,
2013-09-27 14:12:00,68.2,58.0,29.83,NNW,337,2.2,-999.0,70,-99.99,,,0.00,Acu-Link.com,2013-09-27 18:12:00,
2013-09-27 14:27:00,69.3,58.7,29.82,WSW,247,0.0,-999.0,69,-99.99,,,0.00,Acu-Link.com,2013-09-27 18:27:00,
2013-09-27 14:42:00,68.2,58.4,29.82,ENE,67,3.2,-999.0,71,-99.99,,,0.00,Acu-Link.com,2013-09-27 18:42:00,
2013-09-27 14:58:00,68.7,57.7,29.82,East,90,3.2,-999.0,68,-99.99,,,0.00,Acu-Link.com,2013-09-27 18:58:00,
2013-09-27 15:13:00,68.7,58.5,29.82,NNE,22,0.0,-999.0,70,-99.99,,,0.00,Acu-Link.com,2013-09-27 19:13:00,
2013-09-27 15:28:00,68.9,58.7,29.81,SSW,202,1.7,-999.0,70,-99.99,,,0.00,Acu-Link.com,2013-09-27 19:28:00,
2013-09-27 15:44:00,68.9,58.7,29.81,East,90,2.7,-999.0,70,-99.99,,,0.00,Acu-Link.com,2013-09-27 19:44:00,
2013-09-27 15:59:00,68.7,58.5,29.81,East,90,2.7,-999.0,70,-99.99,,,0.00,Acu-Link.com,2013-09-27 19:59:00,
2013-09-27 16:14:00,68.5,59.1,29.81,WSW,247,0.0,-999.0,72,-99.99,,,0.00,Acu-Link.com,2013-09-27 20:14:00,
2013-09-27 16:29:00,68.5,59.1,29.81,East,90,1.7,-999.0,72,-99.99,,,0.00,Acu-Link.com,2013-09-27 20:29:00,
2013-09-27 16:44:00,68.2,58.8,29.80,East,90,1.1,-999.0,72,-99.99,,,0.00,Acu-Link.com,2013-09-27 20:44:00,
2013-09-27 17:00:00,68.0,59.0,29.80,ESE,112,3.7,-999.0,73,-99.99,,,0.00,Acu-Link.com,2013-09-27 21:00:00,
2013-09-27 17:15:00,67.8,58.8,29.80,ESE,112,2.7,-999.0,73,-99.99,,,0.00,Acu-Link.com,2013-09-27 21:15:00,
2013-09-27 17:30:00,67.6,59.0,29.80,East,90,3.7,-999.0,74,-99.99,,,0.00,Acu-Link.com,2013-09-27 21:30:00,
2013-09-27 17:45:00,67.3,58.7,29.80,SW,225,0.0,-999.0,74,-99.99,,,0.00,Acu-Link.com,2013-09-27 21:45:00,
2013-09-27 18:00:00,66.7,59.3,29.80,ENE,67,1.7,-999.0,77,-99.99,,,0.00,Acu-Link.com,2013-09-27 22:00:00,
2013-09-27 18:15:00,66.4,60.4,29.80,NE,45,0.0,-999.0,81,-99.99,,,0.00,Acu-Link.com,2013-09-27 22:15:00,
2013-09-27 18:31:00,66.0,60.3,29.81,ENE,67,0.0,-999.0,82,-99.99,,,0.00,Acu-Link.com,2013-09-27 22:31:00,
2013-09-27 18:46:00,65.1,60.5,29.81,SW,225,0.0,-999.0,85,-99.99,,,0.00,Acu-Link.com,2013-09-27 22:46:00,
2013-09-27 19:01:00,64.6,59.7,29.81,East,90,0.0,-999.0,84,-99.99,,,0.00,Acu-Link.com,2013-09-27 23:01:00,
2013-09-27 19:16:00,64.2,59.3,29.81,East,90,0.0,-999.0,84,-99.99,,,0.00,Acu-Link.com,2013-09-27 23:16:00,
2013-09-27 19:31:00,62.4,58.5,29.81,NE,45,0.0,-999.0,87,-99.99,,,0.00,Acu-Link.com,2013-09-27 23:31:00,
2013-09-27 19:47:00,61.3,57.4,29.81,ENE,67,0.0,-999.0,87,-99.99,,,0.00,Acu-Link.com,2013-09-27 23:47:00,
2013-09-27 20:02:00,61.3,57.4,29.82,West,270,0.0,-999.0,87,-99.99,,,0.00,Acu-Link.com,2013-09-28 00:02:00,
2013-09-27 20:17:00,60.6,56.7,29.82,WSW,247,0.0,-999.0,87,-99.99,,,0.00,Acu-Link.com,2013-09-28 00:17:00,
2013-09-27 20:32:00,59.7,56.1,29.83,SW,225,0.0,-999.0,88,-99.99,,,0.00,Acu-Link.com,2013-09-28 00:32:00,
2013-09-27 20:48:00,58.5,55.3,29.83,NNE,22,0.0,-999.0,89,-99.99,,,0.00,Acu-Link.com,2013-09-28 00:48:00,
2013-09-27 21:03:00,58.3,55.1,29.84,NE,45,0.0,-999.0,89,-99.99,,,0.00,Acu-Link.com,2013-09-28 01:03:00,
2013-09-27 21:18:00,58.5,55.3,29.85,SSW,202,0.0,-999.0,89,-99.99,,,0.00,Acu-Link.com,2013-09-28 01:18:00,
2013-09-27 21:33:00,57.6,54.4,29.86,NE,45,0.0,-999.0,89,-99.99,,,0.00,Acu-Link.com,2013-09-28 01:33:00,
2013-09-27 21:48:00,57.7,54.5,29.86,WSW,247,0.0,-999.0,89,-99.99,,,0.00,Acu-Link.com,2013-09-28 01:48:00,
2013-09-27 22:03:00,57.7,54.5,29.86,WNW,292,0.0,-999.0,89,-99.99,,,0.00,Acu-Link.com,2013-09-28 02:03:00,
2013-09-27 22:18:00,57.6,54.4,29.87,West,270,0.0,-999.0,89,-99.99,,,0.00,Acu-Link.com,2013-09-28 02:18:00,
2013-09-27 22:34:00,57.4,54.2,29.87,NE,45,0.0,-999.0,89,-99.99,,,0.00,Acu-Link.com,2013-09-28 02:34:00,
2013-09-27 22:49:00,56.7,53.8,29.87,NE,45,0.0,-999.0,90,-99.99,,,0.00,Acu-Link.com,2013-09-28 02:49:00,
2013-09-27 23:04:00,56.5,53.6,29.88,NE,45,0.0,-999.0,90,-99.99,,,0.00,Acu-Link.com,2013-09-28 03:04:00,
2013-09-27 23:20:00,56.5,53.6,29.88,NE,45,0.0,-999.0,90,-99.99,,,0.00,Acu-Link.com,2013-09-28 03:20:00,
2013-09-27 23:35:00,56.5,53.9,29.88,NNW,337,0.0,-999.0,91,-99.99,,,0.00,Acu-Link.com,2013-09-28 03:35:00,
2013-09-27 23:50:00,56.3,53.7,29.89,NE,45,0.0,-999.0,91,-99.99,,,0.00,Acu-Link.com,2013-09-28 03:50:00,